Details for Delta Airlines at KSLC




Go Back


Latest METAR
Local Time

KSLC 212254Z 34012G16KT 10SM FEW090 FEW210 33/M02 A2998 RMK AO2 SLP095 T03331017

21/06/2018, 17:30:01

Description
Results
Delta Airlines Logo
Number of Pilots based at KSLC
0 Pilots Based here
Number of Delta Airlines Flights Departed from KSLC
4 Flights Departed
Number of Delta Airlines Flights Arrived at KSLC
4 Flights Arrived
Number of Delta Airlines Schedules Departing from KSLC
347 Schedules
Number of Delta Airlines Schedules Arriving at KSLC
378 Schedules
Number of Delta Airlines Schedules Departing from KSLC availible today
222 Schedules Today
Number of Delta Airlines Schedules Arriving at KSLC availible today
212 Schedules Today
Average Landing Rate at KSLC
-374 fpm
Delta Airlines Average Landing Rate at KSLC
-360 fpm
Total Fuel Purchased at KSLC by Delta Airlines
21,524.77 kgs / 47,453.51 lbs

Pilots Based at KSLC


Pilot ID
Pilot Name
Pilot Rank
No. of Flights
No. of Flying Hours
There are no pilots assigned to this hub!   Will you be the first?
Content